PWSweather.com
Personal Weather Stations
Station Observations
GEELONGWX1
Bell Post Hill, GeelongAU

Bell Post HillGeelongAU

Lat: -38.101, Lon: 144.326

Elevation: 204

Station Type: Davis Vantage Pro2

http://www.geelongweather.com

High Low Average
Temperature 72.2°F22.3°C 59.3°F15.2°C 64.6°F18.1°C
Dew Point 62.7°F17.1°C 56.0°F13.3°C 58.5°F14.7°C
Winds 10.9 mph 17.5 kmh Calm Calm 3.0 mph SSW4.8 kmh SSW
Wind Gusts 20.0 mph32.2 kmh -- 7.0 mph11.3 kmh
Humidity 96% 61% 81%
Pressure 30.07 in1018.3 mb 29.95 in1014.2 mb -
Precipitation 0.58 in14.7 mm - -
Hour Temp Dew Point Humidity Winds Wind Gusts Pressure Precip Precip Rate Daily Precip Total
12:00 AM 61.5°F16.4°C 57.9°F14.4°C 88% Calm Calm -- 29.96 in1014.6 mb 0.00 in0.0 mm 0.00 in/hr0.0 mm/hr 0.00 in0.0 mm
12:10 AM 61.4°F16.3°C 58.1°F14.5°C 89% Calm Calm -- 29.96 in1014.6 mb 0.00 in0.0 mm 0.00 in/hr0.0 mm/hr 0.00 in0.0 mm
12:20 AM 61.3°F16.3°C 57.7°F14.3°C 88% Calm Calm -- 29.96 in1014.6 mb 0.00 in0.0 mm 0.00 in/hr0.0 mm/hr 0.00 in0.0 mm
12:30 AM 61.2°F16.2°C 57.6°F14.2°C 88% Calm Calm -- 29.96 in1014.6 mb 0.00 in0.0 mm 0.00 in/hr0.0 mm/hr 0.00 in0.0 mm
12:40 AM 61.1°F16.2°C 57.9°F14.4°C 89% Calm Calm -- 29.96 in1014.6 mb 0.00 in0.0 mm 0.00 in/hr0.0 mm/hr 0.00 in0.0 mm
12:50 AM 61.2°F16.2°C 57.9°F14.4°C 89% Calm Calm -- 29.96 in1014.6 mb 0.00 in0.0 mm 0.00 in/hr0.0 mm/hr 0.00 in0.0 mm
01:00 AM 61.3°F16.3°C 58.3°F14.6°C 90% Calm Calm -- 29.96 in1014.6 mb 0.00 in0.0 mm 0.00 in/hr0.0 mm/hr 0.00 in0.0 mm
01:10 AM 61.3°F16.3°C 58.7°F14.8°C 91% 1.2 mph ESE1.9 kmh ESE 7.0 mph11.3 kmh 29.95 in1014.2 mb 0.03 in0.8 mm 0.18 in/hr4.6 mm/hr 0.03 in0.8 mm
01:20 AM 61.2°F16.2°C 58.9°F14.9°C 92% 2.9 mph SE4.7 kmh SE 10.0 mph16.1 kmh 29.95 in1014.2 mb 0.00 in0.0 mm 0.00 in/hr0.0 mm/hr 0.03 in0.8 mm
01:30 AM 61.2°F16.2°C 59.2°F15.1°C 93% Calm Calm -- 29.95 in1014.2 mb 0.01 in0.3 mm 0.06 in/hr1.5 mm/hr 0.04 in1.0 mm
01:40 AM 61.1°F16.2°C 59.1°F15.1°C 93% Calm Calm -- 29.95 in1014.2 mb 0.01 in0.3 mm 0.06 in/hr1.5 mm/hr 0.06 in1.5 mm
01:50 AM 61.0°F16.1°C 59.0°F15.0°C 93% 2.5 mph SE4.0 kmh SE 2.0 mph3.2 kmh 29.95 in1014.2 mb 0.02 in0.5 mm 0.12 in/hr3.0 mm/hr 0.08 in2.0 mm
02:00 AM 60.9°F16.1°C 58.9°F14.9°C 93% Calm Calm -- 29.95 in1014.2 mb 0.01 in0.3 mm 0.01 in/hr0.3 mm/hr 0.08 in2.0 mm
02:10 AM 60.8°F16.0°C 58.8°F14.9°C 93% 0.9 mph SE1.4 kmh SE 1.0 mph1.6 kmh 29.95 in1014.2 mb 0.00 in0.0 mm 0.00 in/hr0.0 mm/hr 0.08 in2.0 mm
02:20 AM 60.9°F16.1°C 58.9°F14.9°C 93% 4.1 mph SE6.6 kmh SE 7.0 mph11.3 kmh 29.95 in1014.2 mb 0.00 in0.0 mm 0.00 in/hr0.0 mm/hr 0.08 in2.0 mm
02:30 AM 60.9°F16.1°C 58.6°F14.8°C 92% 1.9 mph SE3.1 kmh SE 3.0 mph4.8 kmh 29.95 in1014.2 mb 0.00 in0.0 mm 0.00 in/hr0.0 mm/hr 0.08 in2.0 mm
02:40 AM 60.7°F15.9°C 58.1°F14.5°C 91% 4.8 mph SSE7.7 kmh SSE 12.0 mph19.3 kmh 29.95 in1014.2 mb 0.00 in0.0 mm 0.00 in/hr0.0 mm/hr 0.08 in2.0 mm
02:50 AM 60.5°F15.8°C 57.9°F14.4°C 91% 2.8 mph SE4.5 kmh SE 7.0 mph11.3 kmh 29.95 in1014.2 mb 0.00 in0.0 mm 0.00 in/hr0.0 mm/hr 0.08 in2.0 mm
03:00 AM 60.4°F15.8°C 57.8°F14.3°C 91% 2.6 mph SE4.2 kmh SE 9.0 mph14.5 kmh 29.95 in1014.2 mb 0.00 in0.0 mm 0.00 in/hr0.0 mm/hr 0.08 in2.0 mm
03:10 AM 60.3°F15.7°C 57.7°F14.3°C 91% 1.9 mph SE3.1 kmh SE 5.0 mph8.0 kmh 29.95 in1014.2 mb 0.00 in0.0 mm 0.00 in/hr0.0 mm/hr 0.08 in2.0 mm
03:20 AM 60.2°F15.7°C 57.6°F14.2°C 91% 3.9 mph SE6.3 kmh SE 6.0 mph9.7 kmh 29.95 in1014.2 mb 0.00 in0.0 mm 0.00 in/hr0.0 mm/hr 0.08 in2.0 mm
03:30 AM 60.1°F15.6°C 57.5°F14.2°C 91% 0.9 mph SE1.4 kmh SE -- 29.95 in1014.2 mb 0.00 in0.0 mm 0.00 in/hr0.0 mm/hr 0.08 in2.0 mm
03:40 AM 59.9°F15.5°C 57.3°F14.1°C 91% 3.4 mph S5.5 kmh S 9.0 mph14.5 kmh 29.95 in1014.2 mb 0.00 in0.0 mm 0.00 in/hr0.0 mm/hr 0.08 in2.0 mm
03:50 AM 59.8°F15.4°C 57.2°F14.0°C 91% 3.0 mph SSE4.8 kmh SSE 6.0 mph9.7 kmh 29.95 in1014.2 mb 0.00 in0.0 mm 0.00 in/hr0.0 mm/hr 0.08 in2.0 mm
04:00 AM 59.8°F15.4°C 57.2°F14.0°C 91% Calm Calm -- 29.95 in1014.2 mb 0.00 in0.0 mm 0.00 in/hr0.0 mm/hr 0.08 in2.0 mm
04:10 AM 59.8°F15.4°C 57.5°F14.2°C 92% 3.0 mph N4.8 kmh N 5.0 mph8.0 kmh 29.95 in1014.2 mb 0.00 in0.0 mm 0.00 in/hr0.0 mm/hr 0.08 in2.0 mm
04:20 AM 60.1°F15.6°C 57.8°F14.3°C 92% 3.5 mph SE5.6 kmh SE 6.0 mph9.7 kmh 29.95 in1014.2 mb 0.00 in0.0 mm 0.00 in/hr0.0 mm/hr 0.08 in2.0 mm
04:30 AM 60.4°F15.8°C 58.1°F14.5°C 92% 2.1 mph SE3.4 kmh SE 5.0 mph8.0 kmh 29.95 in1014.2 mb 0.01 in0.3 mm 0.06 in/hr1.5 mm/hr 0.09 in2.3 mm
04:40 AM 60.5°F15.8°C 58.5°F14.7°C 93% 3.1 mph N5.0 kmh N 6.0 mph9.7 kmh 29.95 in1014.2 mb 0.02 in0.5 mm 0.12 in/hr3.0 mm/hr 0.10 in2.5 mm
04:50 AM 60.6°F15.9°C 58.6°F14.8°C 93% 1.0 mph N1.6 kmh N -- 29.96 in1014.6 mb 0.00 in0.0 mm 0.00 in/hr0.0 mm/hr 0.10 in2.5 mm
05:00 AM 60.6°F15.9°C 58.6°F14.8°C 93% Calm Calm -- 29.96 in1014.6 mb 0.02 in0.5 mm 0.02 in/hr0.5 mm/hr 0.12 in3.0 mm
05:10 AM 60.5°F15.8°C 58.4°F14.7°C 93% 7.5 mph N12.1 kmh N 16.0 mph25.7 kmh 29.96 in1014.6 mb 0.12 in3.0 mm 0.72 in/hr18.3 mm/hr 0.24 in6.1 mm
05:20 AM 60.0°F15.6°C 58.0°F14.4°C 93% 3.0 mph SE4.8 kmh SE 9.0 mph14.5 kmh 29.97 in1014.9 mb 0.03 in0.8 mm 0.18 in/hr4.6 mm/hr 0.28 in7.1 mm
05:30 AM 59.9°F15.5°C 58.2°F14.6°C 94% 2.7 mph SE4.3 kmh SE 5.0 mph8.0 kmh 29.97 in1014.9 mb 0.00 in0.0 mm 0.00 in/hr0.0 mm/hr 0.28 in7.1 mm
05:40 AM 59.9°F15.5°C 58.4°F14.7°C 95% 1.2 mph N1.9 kmh N 3.0 mph4.8 kmh 29.97 in1014.9 mb 0.00 in0.0 mm 0.00 in/hr0.0 mm/hr 0.28 in7.1 mm
05:50 AM 60.0°F15.6°C 58.6°F14.8°C 95% 0.6 mph SSE1.0 kmh SSE 3.0 mph4.8 kmh 29.98 in1015.2 mb 0.20 in5.1 mm 1.20 in/hr30.5 mm/hr 0.47 in11.9 mm
06:00 AM 59.9°F15.5°C 58.5°F14.7°C 95% 4.5 mph N7.2 kmh N 7.0 mph11.3 kmh 29.98 in1015.2 mb 0.04 in1.0 mm 0.05 in/hr1.3 mm/hr 0.50 in12.7 mm
06:10 AM 59.3°F15.2°C 57.9°F14.4°C 95% 5.1 mph SE8.2 kmh SE 11.0 mph17.7 kmh 29.98 in1015.2 mb 0.00 in0.0 mm 0.00 in/hr0.0 mm/hr 0.50 in12.7 mm
06:20 AM 59.3°F15.2°C 57.9°F14.4°C 95% 1.8 mph SE2.9 kmh SE 9.0 mph14.5 kmh 29.99 in1015.6 mb 0.01 in0.3 mm 0.06 in/hr1.5 mm/hr 0.51 in13.0 mm
06:30 AM 59.8°F15.4°C 58.7°F14.8°C 96% 3.4 mph SE5.5 kmh SE 9.0 mph14.5 kmh 29.99 in1015.6 mb 0.00 in0.0 mm 0.00 in/hr0.0 mm/hr 0.51 in13.0 mm
06:40 AM 59.9°F15.5°C 58.8°F14.9°C 96% 5.0 mph SSE8.0 kmh SSE 10.0 mph16.1 kmh 29.99 in1015.6 mb 0.00 in0.0 mm 0.00 in/hr0.0 mm/hr 0.51 in13.0 mm
06:50 AM 60.3°F15.7°C 59.2°F15.1°C 96% 2.3 mph SSE3.7 kmh SSE 10.0 mph16.1 kmh 30.00 in1015.9 mb 0.00 in0.0 mm 0.00 in/hr0.0 mm/hr 0.51 in13.0 mm
07:00 AM 60.7°F15.9°C 59.3°F15.2°C 95% 6.8 mph SE10.9 kmh SE 11.0 mph17.7 kmh 30.00 in1015.9 mb 0.00 in0.0 mm 0.00 in/hr0.0 mm/hr 0.51 in13.0 mm
07:10 AM 60.9°F16.1°C 59.5°F15.3°C 95% 5.0 mph SE8.0 kmh SE 6.0 mph9.7 kmh 30.00 in1015.9 mb 0.00 in0.0 mm 0.00 in/hr0.0 mm/hr 0.51 in13.0 mm
07:20 AM 61.7°F16.5°C 60.2°F15.7°C 95% 4.8 mph SE7.7 kmh SE 6.0 mph9.7 kmh 30.00 in1015.9 mb 0.00 in0.0 mm 0.00 in/hr0.0 mm/hr 0.51 in13.0 mm
07:30 AM 61.7°F16.5°C 59.6°F15.3°C 93% 4.9 mph SE7.9 kmh SE 7.0 mph11.3 kmh 30.00 in1015.9 mb 0.00 in0.0 mm 0.00 in/hr0.0 mm/hr 0.51 in13.0 mm
07:40 AM 62.4°F16.9°C 60.7°F15.9°C 94% 2.4 mph SE3.9 kmh SE 4.0 mph6.4 kmh 30.00 in1015.9 mb 0.00 in0.0 mm 0.00 in/hr0.0 mm/hr 0.51 in13.0 mm
07:50 AM 63.0°F17.2°C 60.3°F15.7°C 91% 6.5 mph N10.5 kmh N 11.0 mph17.7 kmh 30.01 in1016.3 mb 0.00 in0.0 mm 0.00 in/hr0.0 mm/hr 0.51 in13.0 mm
08:00 AM 63.1°F17.3°C 60.1°F15.6°C 90% 5.9 mph SSE9.5 kmh SSE 12.0 mph19.3 kmh 30.01 in1016.3 mb 0.00 in0.0 mm 0.00 in/hr0.0 mm/hr 0.51 in13.0 mm
08:10 AM 63.2°F17.3°C 60.5°F15.8°C 91% 2.7 mph ESE4.3 kmh ESE 7.0 mph11.3 kmh 30.02 in1016.6 mb 0.00 in0.0 mm 0.00 in/hr0.0 mm/hr 0.51 in13.0 mm
08:20 AM 63.5°F17.5°C 60.5°F15.8°C 90% 6.1 mph SE9.8 kmh SE 12.0 mph19.3 kmh 30.02 in1016.6 mb 0.00 in0.0 mm 0.00 in/hr0.0 mm/hr 0.51 in13.0 mm
08:30 AM 64.2°F17.9°C 60.9°F16.1°C 89% 6.7 mph ESE10.8 kmh ESE 13.0 mph20.9 kmh 30.02 in1016.6 mb 0.00 in0.0 mm 0.00 in/hr0.0 mm/hr 0.51 in13.0 mm
08:40 AM 65.2°F18.4°C 61.6°F16.4°C 88% 1.4 mph SE2.3 kmh SE 9.0 mph14.5 kmh 30.02 in1016.6 mb 0.00 in0.0 mm 0.00 in/hr0.0 mm/hr 0.51 in13.0 mm
08:50 AM 64.6°F18.1°C 60.3°F15.7°C 86% 4.8 mph SE7.7 kmh SE 10.0 mph16.1 kmh 30.02 in1016.6 mb 0.00 in0.0 mm 0.00 in/hr0.0 mm/hr 0.51 in13.0 mm
09:00 AM 63.5°F17.5°C 60.5°F15.8°C 90% 5.1 mph SE8.2 kmh SE 12.0 mph19.3 kmh 30.02 in1016.6 mb 0.06 in1.5 mm 0.07 in/hr1.8 mm/hr 0.56 in14.2 mm
09:10 AM 62.8°F17.1°C 60.4°F15.8°C 92% 3.6 mph ESE5.8 kmh ESE 10.0 mph16.1 kmh 30.02 in1016.6 mb 0.02 in0.5 mm 0.12 in/hr3.0 mm/hr 0.57 in14.5 mm
09:20 AM 63.0°F17.2°C 60.9°F16.1°C 93% Calm Calm -- 30.02 in1016.6 mb 0.00 in0.0 mm 0.00 in/hr0.0 mm/hr 0.57 in14.5 mm
09:30 AM 64.3°F17.9°C 62.2°F16.8°C 93% Calm Calm -- 30.02 in1016.6 mb 0.00 in0.0 mm 0.00 in/hr0.0 mm/hr 0.57 in14.5 mm
09:40 AM 65.7°F18.7°C 62.7°F17.1°C 90% 4.2 mph N6.8 kmh N 12.0 mph19.3 kmh 30.02 in1016.6 mb 0.00 in0.0 mm 0.00 in/hr0.0 mm/hr 0.57 in14.5 mm
09:50 AM 65.8°F18.8°C 60.8°F16.0°C 84% 10.9 mph SSE17.5 kmh SSE 17.0 mph27.4 kmh 30.02 in1016.6 mb 0.00 in0.0 mm 0.00 in/hr0.0 mm/hr 0.57 in14.5 mm
10:00 AM 66.3°F19.1°C 61.7°F16.5°C 85% 3.4 mph SE5.5 kmh SE 10.0 mph16.1 kmh 30.02 in1016.6 mb 0.00 in0.0 mm 0.00 in/hr0.0 mm/hr 0.57 in14.5 mm
10:10 AM 66.8°F19.3°C 60.8°F16.0°C 81% 10.1 mph S16.3 kmh S 16.0 mph25.7 kmh 30.02 in1016.6 mb 0.00 in0.0 mm 0.00 in/hr0.0 mm/hr 0.57 in14.5 mm
10:20 AM 67.7°F19.8°C 60.6°F15.9°C 78% 7.6 mph N12.2 kmh N 15.0 mph24.1 kmh 30.02 in1016.6 mb 0.00 in0.0 mm 0.00 in/hr0.0 mm/hr 0.57 in14.5 mm
10:30 AM 68.7°F20.4°C 60.5°F15.8°C 75% 8.8 mph SE14.2 kmh SE 13.0 mph20.9 kmh 30.02 in1016.6 mb 0.00 in0.0 mm 0.00 in/hr0.0 mm/hr 0.57 in14.5 mm
10:40 AM 69.7°F20.9°C 61.4°F16.3°C 75% 7.4 mph ESE11.9 kmh ESE 12.0 mph19.3 kmh 30.02 in1016.6 mb 0.00 in0.0 mm 0.00 in/hr0.0 mm/hr 0.57 in14.5 mm
10:50 AM 69.4°F20.8°C 60.0°F15.6°C 72% 5.3 mph ESE8.5 kmh ESE 13.0 mph20.9 kmh 30.02 in1016.6 mb 0.00 in0.0 mm 0.00 in/hr0.0 mm/hr 0.57 in14.5 mm
11:00 AM 69.5°F20.8°C 60.1°F15.6°C 72% 5.0 mph ESE8.0 kmh ESE 16.0 mph25.7 kmh 30.02 in1016.6 mb 0.00 in0.0 mm 0.00 in/hr0.0 mm/hr 0.57 in14.5 mm
11:10 AM 69.5°F20.8°C 59.7°F15.4°C 71% 4.5 mph SE7.2 kmh SE 16.0 mph25.7 kmh 30.02 in1016.6 mb 0.00 in0.0 mm 0.00 in/hr0.0 mm/hr 0.57 in14.5 mm
11:20 AM 69.8°F21.0°C 60.4°F15.8°C 72% 3.7 mph SE6.0 kmh SE 15.0 mph24.1 kmh 30.01 in1016.3 mb 0.00 in0.0 mm 0.00 in/hr0.0 mm/hr 0.57 in14.5 mm
11:30 AM 70.5°F21.4°C 59.8°F15.4°C 69% 7.4 mph N11.9 kmh N 13.0 mph20.9 kmh 30.01 in1016.3 mb 0.00 in0.0 mm 0.00 in/hr0.0 mm/hr 0.57 in14.5 mm
11:40 AM 71.3°F21.8°C 61.0°F16.1°C 70% 7.2 mph SE11.6 kmh SE 16.0 mph25.7 kmh 30.01 in1016.3 mb 0.00 in0.0 mm 0.00 in/hr0.0 mm/hr 0.57 in14.5 mm
11:50 AM 71.9°F22.2°C 60.3°F15.7°C 67% 6.4 mph ESE10.3 kmh ESE 12.0 mph19.3 kmh 30.01 in1016.3 mb 0.00 in0.0 mm 0.00 in/hr0.0 mm/hr 0.57 in14.5 mm
12:00 PM 72.2°F22.3°C 60.6°F15.9°C 67% 7.4 mph S11.9 kmh S 15.0 mph24.1 kmh 30.01 in1016.3 mb 0.00 in0.0 mm 0.00 in/hr0.0 mm/hr 0.57 in14.5 mm
12:10 PM 71.9°F22.2°C 60.3°F15.7°C 67% 6.8 mph SSE10.9 kmh SSE 15.0 mph24.1 kmh 30.01 in1016.3 mb 0.00 in0.0 mm 0.00 in/hr0.0 mm/hr 0.57 in14.5 mm
12:20 PM 71.2°F21.8°C 59.7°F15.4°C 67% 6.3 mph N10.1 kmh N 17.0 mph27.4 kmh 30.01 in1016.3 mb 0.00 in0.0 mm 0.00 in/hr0.0 mm/hr 0.57 in14.5 mm
12:30 PM 71.1°F21.7°C 59.2°F15.1°C 66% 8.6 mph SE13.8 kmh SE 16.0 mph25.7 kmh 30.01 in1016.3 mb 0.00 in0.0 mm 0.00 in/hr0.0 mm/hr 0.57 in14.5 mm
12:40 PM 71.5°F21.9°C 58.7°F14.8°C 64% 4.6 mph SSE7.4 kmh SSE 11.0 mph17.7 kmh 30.00 in1015.9 mb 0.00 in0.0 mm 0.00 in/hr0.0 mm/hr 0.57 in14.5 mm
12:50 PM 71.1°F21.7°C 59.1°F15.1°C 66% 3.4 mph SE5.5 kmh SE 15.0 mph24.1 kmh 30.00 in1015.9 mb 0.00 in0.0 mm 0.00 in/hr0.0 mm/hr 0.57 in14.5 mm
01:00 PM 71.9°F22.2°C 59.9°F15.5°C 66% 4.4 mph S7.1 kmh S 14.0 mph22.5 kmh 30.00 in1015.9 mb 0.00 in0.0 mm 0.00 in/hr0.0 mm/hr 0.57 in14.5 mm
01:10 PM 71.7°F22.1°C 58.9°F14.9°C 64% 8.0 mph SE12.9 kmh SE 13.0 mph20.9 kmh 30.00 in1015.9 mb 0.00 in0.0 mm 0.00 in/hr0.0 mm/hr 0.57 in14.5 mm
01:20 PM 71.7°F22.1°C 59.7°F15.4°C 66% 7.2 mph SSE11.6 kmh SSE 13.0 mph20.9 kmh 30.00 in1015.9 mb 0.00 in0.0 mm 0.00 in/hr0.0 mm/hr 0.57 in14.5 mm
01:30 PM 71.6°F22.0°C 59.2°F15.1°C 65% 4.9 mph N7.9 kmh N 15.0 mph24.1 kmh 30.00 in1015.9 mb 0.00 in0.0 mm 0.00 in/hr0.0 mm/hr 0.57 in14.5 mm
01:40 PM 71.7°F22.1°C 58.4°F14.7°C 63% 7.6 mph SE12.2 kmh SE 15.0 mph24.1 kmh 30.00 in1015.9 mb 0.00 in0.0 mm 0.00 in/hr0.0 mm/hr 0.57 in14.5 mm
01:50 PM 71.7°F22.1°C 58.0°F14.4°C 62% 9.1 mph SSE14.6 kmh SSE 15.0 mph24.1 kmh 30.00 in1015.9 mb 0.00 in0.0 mm 0.00 in/hr0.0 mm/hr 0.57 in14.5 mm
02:00 PM 72.2°F22.3°C 59.3°F15.2°C 64% 4.3 mph SE6.9 kmh SE 12.0 mph19.3 kmh 30.00 in1015.9 mb 0.00 in0.0 mm 0.00 in/hr0.0 mm/hr 0.57 in14.5 mm
02:10 PM 72.2°F22.3°C 58.9°F14.9°C 63% 3.3 mph S5.3 kmh S 16.0 mph25.7 kmh 30.00 in1015.9 mb 0.00 in0.0 mm 0.00 in/hr0.0 mm/hr 0.57 in14.5 mm
02:20 PM 71.9°F22.2°C 57.7°F14.3°C 61% 10.9 mph N17.5 kmh N 15.0 mph24.1 kmh 30.00 in1015.9 mb 0.00 in0.0 mm 0.00 in/hr0.0 mm/hr 0.57 in14.5 mm
02:30 PM 71.9°F22.2°C 58.6°F14.8°C 63% 6.1 mph N9.8 kmh N 14.0 mph22.5 kmh 30.00 in1015.9 mb 0.00 in0.0 mm 0.00 in/hr0.0 mm/hr 0.57 in14.5 mm
02:40 PM 72.2°F22.3°C 58.5°F14.7°C 62% 7.4 mph SE11.9 kmh SE 9.0 mph14.5 kmh 30.00 in1015.9 mb 0.00 in0.0 mm 0.00 in/hr0.0 mm/hr 0.57 in14.5 mm
02:50 PM 71.8°F22.1°C 57.7°F14.3°C 61% 7.4 mph SSE11.9 kmh SSE 16.0 mph25.7 kmh 29.99 in1015.6 mb 0.00 in0.0 mm 0.00 in/hr0.0 mm/hr 0.57 in14.5 mm
03:00 PM 71.8°F22.1°C 57.6°F14.2°C 61% 7.5 mph N12.1 kmh N 11.0 mph17.7 kmh 29.99 in1015.6 mb 0.00 in0.0 mm 0.00 in/hr0.0 mm/hr 0.57 in14.5 mm
03:10 PM 71.4°F21.9°C 58.1°F14.5°C 63% 8.7 mph SSE14.0 kmh SSE 14.0 mph22.5 kmh 29.99 in1015.6 mb 0.00 in0.0 mm 0.00 in/hr0.0 mm/hr 0.57 in14.5 mm
03:20 PM 71.5°F21.9°C 59.1°F15.1°C 65% 6.9 mph ESE11.1 kmh ESE 11.0 mph17.7 kmh 29.99 in1015.6 mb 0.00 in0.0 mm 0.00 in/hr0.0 mm/hr 0.57 in14.5 mm
03:30 PM 71.1°F21.7°C 57.9°F14.4°C 63% 6.3 mph SE10.1 kmh SE 13.0 mph20.9 kmh 29.99 in1015.6 mb 0.00 in0.0 mm 0.00 in/hr0.0 mm/hr 0.57 in14.5 mm
03:40 PM 71.1°F21.7°C 58.3°F14.6°C 64% 7.7 mph SE12.4 kmh SE 20.0 mph32.2 kmh 30.00 in1015.9 mb 0.00 in0.0 mm 0.00 in/hr0.0 mm/hr 0.57 in14.5 mm
03:50 PM 70.2°F21.2°C 57.5°F14.2°C 64% 2.4 mph N3.9 kmh N 15.0 mph24.1 kmh 29.99 in1015.6 mb 0.00 in0.0 mm 0.00 in/hr0.0 mm/hr 0.57 in14.5 mm
04:00 PM 70.1°F21.2°C 57.4°F14.1°C 64% 7.1 mph SE11.4 kmh SE 15.0 mph24.1 kmh 29.99 in1015.6 mb 0.00 in0.0 mm 0.00 in/hr0.0 mm/hr 0.57 in14.5 mm
04:10 PM 70.1°F21.2°C 57.8°F14.3°C 65% 9.2 mph SSE14.8 kmh SSE 12.0 mph19.3 kmh 29.99 in1015.6 mb 0.00 in0.0 mm 0.00 in/hr0.0 mm/hr 0.57 in14.5 mm
05:00 PM 68.7°F20.4°C 57.7°F14.3°C 68% 4.6 mph SE7.4 kmh SE 15.0 mph24.1 kmh 30.00 in1015.9 mb 0.00 in0.0 mm 0.00 in/hr0.0 mm/hr 0.58 in14.7 mm
05:10 PM 68.8°F20.4°C 57.8°F14.3°C 68% 2.2 mph SSE3.5 kmh SSE 13.0 mph20.9 kmh 30.01 in1016.3 mb 0.00 in0.0 mm 0.00 in/hr0.0 mm/hr 0.58 in14.7 mm
05:20 PM 68.6°F20.3°C 57.2°F14.0°C 67% 4.5 mph SE7.2 kmh SE 10.0 mph16.1 kmh 30.01 in1016.3 mb 0.00 in0.0 mm 0.00 in/hr0.0 mm/hr 0.58 in14.7 mm
05:30 PM 68.5°F20.3°C 57.5°F14.2°C 68% 7.4 mph SE11.9 kmh SE 11.0 mph17.7 kmh 30.01 in1016.3 mb 0.00 in0.0 mm 0.00 in/hr0.0 mm/hr 0.58 in14.7 mm
05:40 PM 68.3°F20.2°C 58.1°F14.5°C 70% 3.5 mph SSE5.6 kmh SSE 13.0 mph20.9 kmh 30.01 in1016.3 mb 0.00 in0.0 mm 0.00 in/hr0.0 mm/hr 0.58 in14.7 mm
05:50 PM 68.1°F20.1°C 57.9°F14.4°C 70% 3.4 mph SE5.5 kmh SE 15.0 mph24.1 kmh 30.01 in1016.3 mb 0.00 in0.0 mm 0.00 in/hr0.0 mm/hr 0.58 in14.7 mm
06:00 PM 67.9°F19.9°C 57.8°F14.3°C 70% 7.3 mph S11.7 kmh S 13.0 mph20.9 kmh 30.01 in1016.3 mb 0.00 in0.0 mm 0.00 in/hr0.0 mm/hr 0.58 in14.7 mm
06:10 PM 67.1°F19.5°C 57.8°F14.3°C 72% Calm Calm -- 30.01 in1016.3 mb 0.00 in0.0 mm 0.00 in/hr0.0 mm/hr 0.58 in14.7 mm
06:20 PM 66.6°F19.2°C 57.3°F14.1°C 72% 5.5 mph SSE8.9 kmh SSE 10.0 mph16.1 kmh 30.02 in1016.6 mb 0.00 in0.0 mm 0.00 in/hr0.0 mm/hr 0.58 in14.7 mm
06:30 PM 66.1°F18.9°C 56.8°F13.8°C 72% 4.6 mph S7.4 kmh S 11.0 mph17.7 kmh 30.02 in1016.6 mb 0.00 in0.0 mm 0.00 in/hr0.0 mm/hr 0.58 in14.7 mm
06:40 PM 65.7°F18.7°C 56.8°F13.8°C 73% 2.0 mph SSE3.2 kmh SSE 8.0 mph12.9 kmh 30.02 in1016.6 mb 0.00 in0.0 mm 0.00 in/hr0.0 mm/hr 0.58 in14.7 mm
06:50 PM 65.4°F18.6°C 56.9°F13.8°C 74% 4.8 mph N7.7 kmh N 14.0 mph22.5 kmh 30.03 in1016.9 mb 0.00 in0.0 mm 0.00 in/hr0.0 mm/hr 0.58 in14.7 mm
07:00 PM 65.2°F18.4°C 56.7°F13.7°C 74% 3.6 mph SE5.8 kmh SE 5.0 mph8.0 kmh 30.03 in1016.9 mb 0.00 in0.0 mm 0.00 in/hr0.0 mm/hr 0.58 in14.7 mm
07:10 PM 64.8°F18.2°C 57.0°F13.9°C 76% Calm Calm -- 30.03 in1016.9 mb 0.00 in0.0 mm 0.00 in/hr0.0 mm/hr 0.58 in14.7 mm
07:20 PM 64.6°F18.1°C 57.2°F14.0°C 77% Calm Calm -- 30.03 in1016.9 mb 0.00 in0.0 mm 0.00 in/hr0.0 mm/hr 0.58 in14.7 mm
07:30 PM 64.2°F17.9°C 57.2°F14.0°C 78% 4.0 mph SSE6.4 kmh SSE 6.0 mph9.7 kmh 30.03 in1016.9 mb 0.00 in0.0 mm 0.00 in/hr0.0 mm/hr 0.58 in14.7 mm
07:40 PM 63.8°F17.7°C 57.2°F14.0°C 79% Calm Calm -- 30.04 in1017.3 mb 0.00 in0.0 mm 0.00 in/hr0.0 mm/hr 0.58 in14.7 mm
07:50 PM 63.5°F17.5°C 57.2°F14.0°C 80% Calm Calm -- 30.04 in1017.3 mb 0.00 in0.0 mm 0.00 in/hr0.0 mm/hr 0.58 in14.7 mm
08:00 PM 63.3°F17.4°C 57.4°F14.1°C 81% Calm Calm -- 30.04 in1017.3 mb 0.00 in0.0 mm 0.00 in/hr0.0 mm/hr 0.58 in14.7 mm
08:10 PM 63.2°F17.3°C 57.6°F14.2°C 82% Calm Calm -- 30.04 in1017.3 mb 0.00 in0.0 mm 0.00 in/hr0.0 mm/hr 0.58 in14.7 mm
08:20 PM 63.0°F17.2°C 57.4°F14.1°C 82% Calm Calm -- 30.04 in1017.3 mb 0.00 in0.0 mm 0.00 in/hr0.0 mm/hr 0.58 in14.7 mm
08:30 PM 62.7°F17.1°C 57.5°F14.2°C 83% 1.7 mph N2.7 kmh N 2.0 mph3.2 kmh 30.04 in1017.3 mb 0.00 in0.0 mm 0.00 in/hr0.0 mm/hr 0.58 in14.7 mm
08:40 PM 62.6°F17.0°C 57.3°F14.1°C 83% Calm Calm -- 30.05 in1017.6 mb 0.00 in0.0 mm 0.00 in/hr0.0 mm/hr 0.58 in14.7 mm
08:50 PM 62.4°F16.9°C 57.5°F14.2°C 84% Calm Calm -- 30.05 in1017.6 mb 0.00 in0.0 mm 0.00 in/hr0.0 mm/hr 0.58 in14.7 mm
09:00 PM 62.2°F16.8°C 57.3°F14.1°C 84% Calm Calm -- 30.05 in1017.6 mb 0.00 in0.0 mm 0.00 in/hr0.0 mm/hr 0.58 in14.7 mm
09:10 PM 62.0°F16.7°C 57.1°F13.9°C 84% Calm Calm -- 30.06 in1017.9 mb 0.00 in0.0 mm 0.00 in/hr0.0 mm/hr 0.58 in14.7 mm
09:20 PM 61.8°F16.6°C 56.9°F13.8°C 84% Calm Calm -- 30.07 in1018.3 mb 0.00 in0.0 mm 0.00 in/hr0.0 mm/hr 0.58 in14.7 mm
09:30 PM 61.5°F16.4°C 56.6°F13.7°C 84% Calm Calm -- 30.07 in1018.3 mb 0.00 in0.0 mm 0.00 in/hr0.0 mm/hr 0.58 in14.7 mm
09:40 PM 61.3°F16.3°C 56.4°F13.6°C 84% Calm Calm -- 30.07 in1018.3 mb 0.00 in0.0 mm 0.00 in/hr0.0 mm/hr 0.58 in14.7 mm
09:50 PM 61.1°F16.2°C 56.5°F13.6°C 85% Calm Calm -- 30.07 in1018.3 mb 0.00 in0.0 mm 0.00 in/hr0.0 mm/hr 0.58 in14.7 mm
10:00 PM 61.0°F16.1°C 56.4°F13.6°C 85% Calm Calm -- 30.07 in1018.3 mb 0.00 in0.0 mm 0.00 in/hr0.0 mm/hr 0.58 in14.7 mm
10:10 PM 60.9°F16.1°C 56.0°F13.3°C 84% Calm Calm -- 30.07 in1018.3 mb 0.00 in0.0 mm 0.00 in/hr0.0 mm/hr 0.58 in14.7 mm
10:20 PM 61.0°F16.1°C 56.1°F13.4°C 84% Calm Calm -- 30.07 in1018.3 mb 0.00 in0.0 mm 0.00 in/hr0.0 mm/hr 0.58 in14.7 mm
10:30 PM 61.0°F16.1°C 56.5°F13.6°C 85% Calm Calm -- 30.07 in1018.3 mb 0.00 in0.0 mm 0.00 in/hr0.0 mm/hr 0.58 in14.7 mm
10:40 PM 61.0°F16.1°C 56.5°F13.6°C 85% Calm Calm -- 30.06 in1017.9 mb 0.00 in0.0 mm 0.00 in/hr0.0 mm/hr 0.58 in14.7 mm
10:50 PM 60.9°F16.1°C 56.7°F13.7°C 86% Calm Calm -- 30.06 in1017.9 mb 0.00 in0.0 mm 0.00 in/hr0.0 mm/hr 0.58 in14.7 mm
11:00 PM 60.8°F16.0°C 56.6°F13.7°C 86% Calm Calm -- 30.06 in1017.9 mb 0.00 in0.0 mm 0.00 in/hr0.0 mm/hr 0.61 in15.5 mm
11:10 PM 60.8°F16.0°C 56.9°F13.8°C 87% Calm Calm -- 30.06 in1017.9 mb 0.00 in0.0 mm 0.00 in/hr0.0 mm/hr 0.61 in15.5 mm
11:20 PM 60.7°F15.9°C 56.8°F13.8°C 87% Calm Calm -- 30.06 in1017.9 mb 0.00 in0.0 mm 0.00 in/hr0.0 mm/hr 0.61 in15.5 mm
11:30 PM 60.7°F15.9°C 57.1°F13.9°C 88% Calm Calm -- 30.06 in1017.9 mb 0.00 in0.0 mm 0.00 in/hr0.0 mm/hr 0.61 in15.5 mm
11:40 PM 60.7°F15.9°C 57.1°F13.9°C 88% Calm Calm 5.0 mph8.0 kmh 30.05 in1017.6 mb 0.00 in0.0 mm 0.00 in/hr0.0 mm/hr 0.61 in15.5 mm
11:50 PM 60.6°F15.9°C 57.0°F13.9°C 88% 0.5 mph S0.8 kmh S 5.0 mph8.0 kmh 30.05 in1017.6 mb 0.00 in0.0 mm 0.00 in/hr0.0 mm/hr 0.61 in15.5 mm